If you wish to contribute or participate in the discussions about articles you are invited to join SKYbrary as a registered user

 Actions

Marsa Matruh Airport

From SKYbrary Wiki

HEMM
Airport
ICAO: HEMM – IATA: MUH
Summary
Name Marsa Matruh Airport
Region Europe
Territory Egypt EG.gif
Location Mersa Matruh, Matruh
Serving Mersa Matruh
Elevation 28.651 m
94 ft
94 ft28.651 m
Type medium airport
Coordinates 31° 19' 31.28" N, 27° 13' 18.08" E
Runways
Designator Length Width Surface ROPS
6/24 3000 m9,842.52 ft
45 m147.638 ft
ASP /
15/33 3000 m9,842.52 ft
45 m147.638 ft
ASP /


METAR
Observation HEMM 181200Z 10007KT CAVOK 26/19 Q1017 NOSIG
Station Mersa Matruh
Date/Time 18 October 2019 12:00:00
Wind direction 100°
Wind speed 07 kts
Lowest cloud amount clouds and visibility OK
Temperature 26°C
Dew point 19°C
Humidity 65%
QNH 1017 hPa
Weather condition n/a

Maps

Terrain

Loading map...

Airport Layout

Loading map...


Accidents & Serious Incidents at or in vicinity of HEMM

None on SKYbrary